Decoded Metar for KVTI (VINTON in IA, USA) (IATA:VTI) | Meteo·Mobile Aviation Weather
aviador You're here:

KVTI Decoded Metar

VINTON in IA, USA
Report Time2019-08-22 13:35:00
UTC Time2019-08-22 13:33:49
Flight Rules vfr VFR
WindCalm
Visibility9999 m
Phenomena:N/A
Clouds:N/A
CeilingNone
Temp16°C (ISA +3)
Dew Point16°C (100% RH)
QNH1018 hPa
Density Alt1,227 ft
Elevation837 ft
Report Wrong Elevation
Raw Report
KVTI 221335Z AUTO 00000KT 10SM CLR 16/16 A3007 RMK AO2
T01640164=

Extra information for KVTI:More info

Metar Taf Metar & Taf Last 4 Metars F.Rules Stats Wind Profile Meteogram Temp Stats Airport Information Weather charts Add Link Nearby VenuesMetar ALERT Operation Metar Decoded Social comments

AIRNAV info for KVTI